sensor_id;sensor_type;location;lat;lon;timestamp;temperature;humidity
8850;DHT22;5638;50.860;4.698;2022-11-11T00:00:37;10.60;99.90
8850;DHT22;5638;50.860;4.698;2022-11-11T00:03:03;10.60;99.90
8850;DHT22;5638;50.860;4.698;2022-11-11T00:05:32;10.60;99.90
8850;DHT22;5638;50.860;4.698;2022-11-11T00:07:58;10.60;99.90
8850;DHT22;5638;50.860;4.698;2022-11-11T00:10:29;10.60;99.90
8850;DHT22;5638;50.860;4.698;2022-11-11T00:13:02;10.60;99.90
8850;DHT22;5638;50.860;4.698;2022-11-11T00:15:30;10.60;99.90
8850;DHT22;5638;50.860;4.698;2022-11-11T00:17:56;10.60;99.90
8850;DHT22;5638;50.860;4.698;2022-11-11T00:20:41;10.60;99.90
8850;DHT22;5638;50.860;4.698;2022-11-11T00:23:27;10.40;99.90
8850;DHT22;5638;50.860;4.698;2022-11-11T00:26:13;10.40;99.90
8850;DHT22;5638;50.860;4.698;2022-11-11T00:28:39;10.40;99.90
8850;DHT22;5638;50.860;4.698;2022-11-11T00:31:11;10.40;99.90
8850;DHT22;5638;50.860;4.698;2022-11-11T00:33:38;10.40;99.90
8850;DHT22;5638;50.860;4.698;2022-11-11T00:36:05;10.40;99.90
8850;DHT22;5638;50.860;4.698;2022-11-11T00:38:31;10.30;99.90
8850;DHT22;5638;50.860;4.698;2022-11-11T00:41:10;10.30;99.90
8850;DHT22;5638;50.860;4.698;2022-11-11T00:43:38;10.30;99.90
8850;DHT22;5638;50.860;4.698;2022-11-11T00:46:04;10.20;99.90
8850;DHT22;5638;50.860;4.698;2022-11-11T00:48:48;10.10;99.90
8850;DHT22;5638;50.860;4.698;2022-11-11T00:51:32;10.20;99.90
8850;DHT22;5638;50.860;4.698;2022-11-11T00:53:58;10.10;99.90
8850;DHT22;5638;50.860;4.698;2022-11-11T00:56:25;10.00;99.90
8850;DHT22;5638;50.860;4.698;2022-11-11T00:58:51;10.00;99.90
8850;DHT22;5638;50.860;4.698;2022-11-11T01:01:18;9.90;99.90
8850;DHT22;5638;50.860;4.698;2022-11-11T01:03:44;10.00;99.90
8850;DHT22;5638;50.860;4.698;2022-11-11T01:06:11;10.00;99.90
8850;DHT22;5638;50.860;4.698;2022-11-11T01:08:37;10.00;99.90
8850;DHT22;5638;50.860;4.698;2022-11-11T01:11:10;10.00;99.90
8850;DHT22;5638;50.860;4.698;2022-11-11T01:13:37;10.10;99.90
8850;DHT22;5638;50.860;4.698;2022-11-11T01:16:06;10.10;99.90
8850;DHT22;5638;50.860;4.698;2022-11-11T01:18:33;10.10;99.90
8850;DHT22;5638;50.860;4.698;2022-11-11T01:23:31;10.10;99.90
8850;DHT22;5638;50.860;4.698;2022-11-11T01:26:17;10.10;99.90
8850;DHT22;5638;50.860;4.698;2022-11-11T01:28:52;10.10;99.90
8850;DHT22;5638;50.860;4.698;2022-11-11T01:31:21;10.10;99.90
8850;DHT22;5638;50.860;4.698;2022-11-11T01:33:48;10.10;99.90
8850;DHT22;5638;50.860;4.698;2022-11-11T01:36:17;10.10;99.90
8850;DHT22;5638;50.860;4.698;2022-11-11T01:38:56;10.10;99.90
8850;DHT22;5638;50.860;4.698;2022-11-11T01:41:32;10.10;99.90
8850;DHT22;5638;50.860;4.698;2022-11-11T01:44:18;10.10;99.90
8850;DHT22;5638;50.860;4.698;2022-11-11T01:47:05;10.00;99.90
8850;DHT22;5638;50.860;4.698;2022-11-11T01:49:55;10.00;99.90
8850;DHT22;5638;50.860;4.698;2022-11-11T01:52:35;10.10;99.90
8850;DHT22;5638;50.860;4.698;2022-11-11T01:55:13;10.00;99.90
8850;DHT22;5638;50.860;4.698;2022-11-11T01:57:53;10.00;99.90
8850;DHT22;5638;50.860;4.698;2022-11-11T02:00:25;9.90;99.90
8850;DHT22;5638;50.860;4.698;2022-11-11T02:02:54;10.00;99.90
8850;DHT22;5638;50.860;4.698;2022-11-11T02:05:24;10.00;99.90
8850;DHT22;5638;50.860;4.698;2022-11-11T02:08:12;9.90;99.90
8850;DHT22;5638;50.860;4.698;2022-11-11T02:11:07;10.00;99.90
8850;DHT22;5638;50.860;4.698;2022-11-11T02:13:37;10.00;99.90
8850;DHT22;5638;50.860;4.698;2022-11-11T02:16:25;10.00;99.90
8850;DHT22;5638;50.860;4.698;2022-11-11T02:18:51;10.00;99.90
8850;DHT22;5638;50.860;4.698;2022-11-11T02:21:31;10.00;99.90
8850;DHT22;5638;50.860;4.698;2022-11-11T02:24:09;10.00;99.90
8850;DHT22;5638;50.860;4.698;2022-11-11T02:26:41;10.00;99.90
8850;DHT22;5638;50.860;4.698;2022-11-11T02:29:18;10.00;99.90
8850;DHT22;5638;50.860;4.698;2022-11-11T02:31:45;10.00;99.90
8850;DHT22;5638;50.860;4.698;2022-11-11T02:34:11;10.00;99.90
8850;DHT22;5638;50.860;4.698;2022-11-11T02:36:38;9.90;99.90
8850;DHT22;5638;50.860;4.698;2022-11-11T02:39:05;10.00;99.90
8850;DHT22;5638;50.860;4.698;2022-11-11T02:41:31;10.00;99.90
8850;DHT22;5638;50.860;4.698;2022-11-11T02:44:16;9.90;99.90
8850;DHT22;5638;50.860;4.698;2022-11-11T02:46:42;9.80;99.90
8850;DHT22;5638;50.860;4.698;2022-11-11T02:49:07;9.80;99.90
8850;DHT22;5638;50.860;4.698;2022-11-11T02:51:33;9.90;99.90
8850;DHT22;5638;50.860;4.698;2022-11-11T02:53:59;9.90;99.90
8850;DHT22;5638;50.860;4.698;2022-11-11T02:56:28;9.90;99.90
8850;DHT22;5638;50.860;4.698;2022-11-11T02:59:12;9.90;99.90
8850;DHT22;5638;50.860;4.698;2022-11-11T03:01:38;9.90;99.90
8850;DHT22;5638;50.860;4.698;2022-11-11T03:04:04;9.90;99.90
8850;DHT22;5638;50.860;4.698;2022-11-11T03:06:30;9.90;99.90
8850;DHT22;5638;50.860;4.698;2022-11-11T03:08:56;9.90;99.90
8850;DHT22;5638;50.860;4.698;2022-11-11T03:11:22;9.80;99.90
8850;DHT22;5638;50.860;4.698;2022-11-11T03:13:58;9.90;99.90
8850;DHT22;5638;50.860;4.698;2022-11-11T03:16:25;9.90;99.90
8850;DHT22;5638;50.860;4.698;2022-11-11T03:19:10;9.90;99.90
8850;DHT22;5638;50.860;4.698;2022-11-11T03:21:35;9.80;99.90
8850;DHT22;5638;50.860;4.698;2022-11-11T03:24:01;9.80;99.90
8850;DHT22;5638;50.860;4.698;2022-11-11T03:26:27;9.80;99.90
8850;DHT22;5638;50.860;4.698;2022-11-11T03:28:53;9.80;99.90
8850;DHT22;5638;50.860;4.698;2022-11-11T03:31:19;9.80;99.90
8850;DHT22;5638;50.860;4.698;2022-11-11T03:33:45;9.90;99.90
8850;DHT22;5638;50.860;4.698;2022-11-11T03:36:11;9.80;99.90
8850;DHT22;5638;50.860;4.698;2022-11-11T03:38:37;9.90;99.90
8850;DHT22;5638;50.860;4.698;2022-11-11T03:41:03;9.90;99.90
8850;DHT22;5638;50.860;4.698;2022-11-11T03:43:33;9.90;99.90
8850;DHT22;5638;50.860;4.698;2022-11-11T03:46:02;9.90;99.90
8850;DHT22;5638;50.860;4.698;2022-11-11T03:48:32;9.90;99.90
8850;DHT22;5638;50.860;4.698;2022-11-11T03:50:58;9.80;99.90
8850;DHT22;5638;50.860;4.698;2022-11-11T03:53:24;9.70;99.90
8850;DHT22;5638;50.860;4.698;2022-11-11T03:55:50;9.70;99.90
8850;DHT22;5638;50.860;4.698;2022-11-11T03:58:17;9.70;99.90
8850;DHT22;5638;50.860;4.698;2022-11-11T04:00:44;9.70;99.90
8850;DHT22;5638;50.860;4.698;2022-11-11T04:03:13;9.70;99.90
8850;DHT22;5638;50.860;4.698;2022-11-11T04:06:02;9.70;99.90
8850;DHT22;5638;50.860;4.698;2022-11-11T04:08:47;9.60;99.90
8850;DHT22;5638;50.860;4.698;2022-11-11T04:11:36;9.60;99.90
8850;DHT22;5638;50.860;4.698;2022-11-11T04:14:10;9.50;99.90
8850;DHT22;5638;50.860;4.698;2022-11-11T04:16:56;9.40;99.90
8850;DHT22;5638;50.860;4.698;2022-11-11T04:19:22;9.40;99.90
8850;DHT22;5638;50.860;4.698;2022-11-11T04:22:07;9.30;99.90
8850;DHT22;5638;50.860;4.698;2022-11-11T04:24:33;9.30;99.90
8850;DHT22;5638;50.860;4.698;2022-11-11T04:27:18;9.30;99.90
8850;DHT22;5638;50.860;4.698;2022-11-11T04:29:45;9.20;99.90
8850;DHT22;5638;50.860;4.698;2022-11-11T04:32:19;9.20;99.90
8850;DHT22;5638;50.860;4.698;2022-11-11T04:35:08;9.20;99.90
8850;DHT22;5638;50.860;4.698;2022-11-11T04:37:43;9.20;99.90
8850;DHT22;5638;50.860;4.698;2022-11-11T04:40:11;9.20;99.90
8850;DHT22;5638;50.860;4.698;2022-11-11T04:42:56;9.20;99.90
8850;DHT22;5638;50.860;4.698;2022-11-11T04:45:22;9.10;99.90
8850;DHT22;5638;50.860;4.698;2022-11-11T04:50:24;9.10;99.90
8850;DHT22;5638;50.860;4.698;2022-11-11T04:52:53;9.00;99.90
8850;DHT22;5638;50.860;4.698;2022-11-11T04:55:19;9.00;99.90
8850;DHT22;5638;50.860;4.698;2022-11-11T04:58:03;9.00;99.90
8850;DHT22;5638;50.860;4.698;2022-11-11T05:00:29;8.90;99.90
8850;DHT22;5638;50.860;4.698;2022-11-11T05:02:56;8.90;99.90
8850;DHT22;5638;50.860;4.698;2022-11-11T05:05:45;8.80;99.90
8850;DHT22;5638;50.860;4.698;2022-11-11T05:08:30;8.80;99.90
8850;DHT22;5638;50.860;4.698;2022-11-11T05:11:16;8.70;99.90
8850;DHT22;5638;50.860;4.698;2022-11-11T05:13:43;8.70;99.90
8850;DHT22;5638;50.860;4.698;2022-11-11T05:16:29;8.70;99.90
8850;DHT22;5638;50.860;4.698;2022-11-11T05:19:16;8.70;99.90
8850;DHT22;5638;50.860;4.698;2022-11-11T05:22:41;8.70;99.90
8850;DHT22;5638;50.860;4.698;2022-11-11T05:25:09;8.70;99.90
8850;DHT22;5638;50.860;4.698;2022-11-11T05:27:56;8.70;99.90
8850;DHT22;5638;50.860;4.698;2022-11-11T05:30:23;8.60;99.90
8850;DHT22;5638;50.860;4.698;2022-11-11T05:32:50;8.60;99.90
8850;DHT22;5638;50.860;4.698;2022-11-11T05:35:17;8.60;99.90
8850;DHT22;5638;50.860;4.698;2022-11-11T05:37:43;8.50;99.90
8850;DHT22;5638;50.860;4.698;2022-11-11T05:40:29;8.50;99.90
8850;DHT22;5638;50.860;4.698;2022-11-11T05:42:55;8.50;99.90
8850;DHT22;5638;50.860;4.698;2022-11-11T05:45:20;8.50;99.90
8850;DHT22;5638;50.860;4.698;2022-11-11T05:47:46;8.50;99.90
8850;DHT22;5638;50.860;4.698;2022-11-11T05:50:12;8.50;99.90
8850;DHT22;5638;50.860;4.698;2022-11-11T05:52:38;8.50;99.90
8850;DHT22;5638;50.860;4.698;2022-11-11T05:55:04;8.50;99.90
8850;DHT22;5638;50.860;4.698;2022-11-11T05:57:30;8.50;99.90
8850;DHT22;5638;50.860;4.698;2022-11-11T05:59:56;8.60;99.90
8850;DHT22;5638;50.860;4.698;2022-11-11T06:02:23;8.60;99.90
8850;DHT22;5638;50.860;4.698;2022-11-11T06:04:49;8.60;99.90
8850;DHT22;5638;50.860;4.698;2022-11-11T06:07:14;8.60;99.90
8850;DHT22;5638;50.860;4.698;2022-11-11T06:09:40;8.60;99.90
8850;DHT22;5638;50.860;4.698;2022-11-11T06:12:06;8.60;99.90
8850;DHT22;5638;50.860;4.698;2022-11-11T06:14:32;8.50;99.90
8850;DHT22;5638;50.860;4.698;2022-11-11T06:16:58;8.50;99.90
8850;DHT22;5638;50.860;4.698;2022-11-11T06:19:23;8.50;99.90
8850;DHT22;5638;50.860;4.698;2022-11-11T06:21:49;8.50;99.90
8850;DHT22;5638;50.860;4.698;2022-11-11T06:24:25;8.60;99.90
8850;DHT22;5638;50.860;4.698;2022-11-11T06:26:51;8.60;99.90
8850;DHT22;5638;50.860;4.698;2022-11-11T06:29:16;8.60;99.90
8850;DHT22;5638;50.860;4.698;2022-11-11T06:31:43;8.60;99.90
8850;DHT22;5638;50.860;4.698;2022-11-11T06:34:10;8.60;99.90
8850;DHT22;5638;50.860;4.698;2022-11-11T06:36:35;8.60;99.90
8850;DHT22;5638;50.860;4.698;2022-11-11T06:39:01;8.70;99.90
8850;DHT22;5638;50.860;4.698;2022-11-11T06:41:27;8.70;99.90
8850;DHT22;5638;50.860;4.698;2022-11-11T06:43:53;8.70;99.90
8850;DHT22;5638;50.860;4.698;2022-11-11T06:46:24;8.80;99.90
8850;DHT22;5638;50.860;4.698;2022-11-11T06:48:50;8.70;99.90
8850;DHT22;5638;50.860;4.698;2022-11-11T06:51:17;8.80;99.90
8850;DHT22;5638;50.860;4.698;2022-11-11T06:53:44;8.80;99.90
8850;DHT22;5638;50.860;4.698;2022-11-11T06:56:10;8.80;99.90
8850;DHT22;5638;50.860;4.698;2022-11-11T06:58:39;8.90;99.90
8850;DHT22;5638;50.860;4.698;2022-11-11T07:01:07;8.80;99.90
8850;DHT22;5638;50.860;4.698;2022-11-11T07:03:34;8.90;99.90
8850;DHT22;5638;50.860;4.698;2022-11-11T07:06:01;8.90;99.90
8850;DHT22;5638;50.860;4.698;2022-11-11T07:08:28;8.90;99.90
8850;DHT22;5638;50.860;4.698;2022-11-11T07:10:54;8.90;99.90
8850;DHT22;5638;50.860;4.698;2022-11-11T07:13:21;8.90;99.90
8850;DHT22;5638;50.860;4.698;2022-11-11T07:15:47;8.90;99.90
8850;DHT22;5638;50.860;4.698;2022-11-11T07:18:13;8.90;99.90
8850;DHT22;5638;50.860;4.698;2022-11-11T07:20:39;8.80;99.90
8850;DHT22;5638;50.860;4.698;2022-11-11T07:23:05;8.80;99.90
8850;DHT22;5638;50.860;4.698;2022-11-11T07:25:32;8.80;99.90
8850;DHT22;5638;50.860;4.698;2022-11-11T07:27:58;8.80;99.90
8850;DHT22;5638;50.860;4.698;2022-11-11T07:30:24;8.80;99.90
8850;DHT22;5638;50.860;4.698;2022-11-11T07:32:51;8.90;99.90
8850;DHT22;5638;50.860;4.698;2022-11-11T07:35:19;8.90;99.90
8850;DHT22;5638;50.860;4.698;2022-11-11T07:37:46;8.90;99.90
8850;DHT22;5638;50.860;4.698;2022-11-11T07:40:14;9.00;99.90
8850;DHT22;5638;50.860;4.698;2022-11-11T07:42:42;9.00;99.90
8850;DHT22;5638;50.860;4.698;2022-11-11T07:45:10;9.10;99.90
8850;DHT22;5638;50.860;4.698;2022-11-11T07:47:37;9.10;99.90
8850;DHT22;5638;50.860;4.698;2022-11-11T07:50:05;9.10;99.90
8850;DHT22;5638;50.860;4.698;2022-11-11T07:52:32;9.20;99.90
8850;DHT22;5638;50.860;4.698;2022-11-11T07:54:58;9.30;99.90
8850;DHT22;5638;50.860;4.698;2022-11-11T07:57:24;9.40;99.90
8850;DHT22;5638;50.860;4.698;2022-11-11T07:59:50;9.50;99.90
8850;DHT22;5638;50.860;4.698;2022-11-11T08:02:16;9.60;99.90
8850;DHT22;5638;50.860;4.698;2022-11-11T08:04:42;9.70;99.90
8850;DHT22;5638;50.860;4.698;2022-11-11T08:07:08;9.70;99.90
8850;DHT22;5638;50.860;4.698;2022-11-11T08:09:34;9.80;99.90
8850;DHT22;5638;50.860;4.698;2022-11-11T08:12:00;10.00;99.90
8850;DHT22;5638;50.860;4.698;2022-11-11T08:14:44;10.10;99.90
8850;DHT22;5638;50.860;4.698;2022-11-11T08:17:10;10.20;99.90
8850;DHT22;5638;50.860;4.698;2022-11-11T08:19:36;10.30;99.90
8850;DHT22;5638;50.860;4.698;2022-11-11T08:22:02;10.30;99.90
8850;DHT22;5638;50.860;4.698;2022-11-11T08:24:29;10.30;99.90
8850;DHT22;5638;50.860;4.698;2022-11-11T08:26:55;10.40;99.90
8850;DHT22;5638;50.860;4.698;2022-11-11T08:29:21;10.50;99.90
8850;DHT22;5638;50.860;4.698;2022-11-11T08:31:47;10.60;99.90
8850;DHT22;5638;50.860;4.698;2022-11-11T08:34:13;10.70;99.90
8850;DHT22;5638;50.860;4.698;2022-11-11T08:36:39;10.70;99.90
8850;DHT22;5638;50.860;4.698;2022-11-11T08:39:05;10.80;99.90
8850;DHT22;5638;50.860;4.698;2022-11-11T08:41:31;10.90;99.90
8850;DHT22;5638;50.860;4.698;2022-11-11T08:43:57;11.00;99.90
8850;DHT22;5638;50.860;4.698;2022-11-11T08:46:25;10.90;99.90
8850;DHT22;5638;50.860;4.698;2022-11-11T08:48:51;11.00;99.90
8850;DHT22;5638;50.860;4.698;2022-11-11T08:51:18;11.10;99.90
8850;DHT22;5638;50.860;4.698;2022-11-11T08:53:44;11.10;99.90
8850;DHT22;5638;50.860;4.698;2022-11-11T08:56:09;11.30;99.90
8850;DHT22;5638;50.860;4.698;2022-11-11T08:58:37;11.40;99.90
8850;DHT22;5638;50.860;4.698;2022-11-11T09:01:03;11.50;99.90
8850;DHT22;5638;50.860;4.698;2022-11-11T09:03:30;11.50;99.90
8850;DHT22;5638;50.860;4.698;2022-11-11T09:05:56;11.60;99.90
8850;DHT22;5638;50.860;4.698;2022-11-11T09:08:22;12.00;99.90
8850;DHT22;5638;50.860;4.698;2022-11-11T09:10:48;12.10;99.90
8850;DHT22;5638;50.860;4.698;2022-11-11T09:13:13;12.30;99.90
8850;DHT22;5638;50.860;4.698;2022-11-11T09:15:39;12.70;99.90
8850;DHT22;5638;50.860;4.698;2022-11-11T09:18:05;12.80;99.90
8850;DHT22;5638;50.860;4.698;2022-11-11T09:20:31;13.00;99.90
8850;DHT22;5638;50.860;4.698;2022-11-11T09:22:57;13.30;99.90
8850;DHT22;5638;50.860;4.698;2022-11-11T09:25:23;13.30;99.90
8850;DHT22;5638;50.860;4.698;2022-11-11T09:28:00;13.30;99.90
8850;DHT22;5638;50.860;4.698;2022-11-11T09:30:27;13.30;99.90
8850;DHT22;5638;50.860;4.698;2022-11-11T09:32:59;13.30;99.90
8850;DHT22;5638;50.860;4.698;2022-11-11T09:35:26;13.30;99.90
8850;DHT22;5638;50.860;4.698;2022-11-11T09:37:53;13.50;99.90
8850;DHT22;5638;50.860;4.698;2022-11-11T09:46:45;13.80;99.90
8850;DHT22;5638;50.860;4.698;2022-11-11T09:49:21;13.80;99.90
8850;DHT22;5638;50.860;4.698;2022-11-11T09:52:04;14.00;99.90
8850;DHT22;5638;50.860;4.698;2022-11-11T09:54:39;14.20;99.90
8850;DHT22;5638;50.860;4.698;2022-11-11T09:57:28;14.50;99.90
8850;DHT22;5638;50.860;4.698;2022-11-11T09:59:59;14.80;99.90
8850;DHT22;5638;50.860;4.698;2022-11-11T10:03:23;14.90;99.90
8850;DHT22;5638;50.860;4.698;2022-11-11T10:06:00;15.10;99.90
8850;DHT22;5638;50.860;4.698;2022-11-11T10:11:38;15.80;99.90
8850;DHT22;5638;50.860;4.698;2022-11-11T10:14:28;15.90;99.90
8850;DHT22;5638;50.860;4.698;2022-11-11T10:20:24;16.30;99.90
8850;DHT22;5638;50.860;4.698;2022-11-11T10:25:35;16.40;99.90
8850;DHT22;5638;50.860;4.698;2022-11-11T10:28:05;16.10;99.90
8850;DHT22;5638;50.860;4.698;2022-11-11T10:30:38;15.80;99.90
8850;DHT22;5638;50.860;4.698;2022-11-11T10:33:14;16.10;99.90
8850;DHT22;5638;50.860;4.698;2022-11-11T10:35:46;16.40;99.90
8850;DHT22;5638;50.860;4.698;2022-11-11T10:41:38;16.80;99.90
8850;DHT22;5638;50.860;4.698;2022-11-11T10:44:41;16.70;99.90
8850;DHT22;5638;50.860;4.698;2022-11-11T10:47:18;16.70;99.90
8850;DHT22;5638;50.860;4.698;2022-11-11T10:50:17;16.80;99.90
8850;DHT22;5638;50.860;4.698;2022-11-11T10:53:07;16.60;99.90
8850;DHT22;5638;50.860;4.698;2022-11-11T10:58:57;16.50;99.90
8850;DHT22;5638;50.860;4.698;2022-11-11T11:01:51;16.80;99.90
8850;DHT22;5638;50.860;4.698;2022-11-11T11:07:19;17.30;99.90
8850;DHT22;5638;50.860;4.698;2022-11-11T11:09:59;17.60;99.90
8850;DHT22;5638;50.860;4.698;2022-11-11T11:12:45;17.70;99.90
8850;DHT22;5638;50.860;4.698;2022-11-11T11:15:25;17.90;99.90
8850;DHT22;5638;50.860;4.698;2022-11-11T11:18:08;17.70;99.90
8850;DHT22;5638;50.860;4.698;2022-11-11T11:20:37;17.30;99.90
8850;DHT22;5638;50.860;4.698;2022-11-11T11:23:03;16.80;99.90
8850;DHT22;5638;50.860;4.698;2022-11-11T11:25:31;16.80;99.90
8850;DHT22;5638;50.860;4.698;2022-11-11T11:30:38;17.20;99.90
8850;DHT22;5638;50.860;4.698;2022-11-11T11:33:06;17.10;99.90
8850;DHT22;5638;50.860;4.698;2022-11-11T11:35:42;17.20;99.90
8850;DHT22;5638;50.860;4.698;2022-11-11T11:38:11;17.20;99.90
8850;DHT22;5638;50.860;4.698;2022-11-11T11:40:57;17.30;99.90
8850;DHT22;5638;50.860;4.698;2022-11-11T11:43:32;17.60;99.90
8850;DHT22;5638;50.860;4.698;2022-11-11T11:46:27;17.60;99.90
8850;DHT22;5638;50.860;4.698;2022-11-11T11:52:36;17.50;99.90
8850;DHT22;5638;50.860;4.698;2022-11-11T11:55:17;17.60;99.90
8850;DHT22;5638;50.860;4.698;2022-11-11T12:00:28;17.80;99.90
8850;DHT22;5638;50.860;4.698;2022-11-11T12:03:23;17.90;99.90
8850;DHT22;5638;50.860;4.698;2022-11-11T12:06:38;18.20;99.90
8850;DHT22;5638;50.860;4.698;2022-11-11T12:09:28;18.70;99.90
8850;DHT22;5638;50.860;4.698;2022-11-11T12:12:06;19.00;99.90
8850;DHT22;5638;50.860;4.698;2022-11-11T12:18:57;18.70;99.90
8850;DHT22;5638;50.860;4.698;2022-11-11T12:21:15;18.80;99.90
8850;DHT22;5638;50.860;4.698;2022-11-11T12:24:17;18.90;99.90
8850;DHT22;5638;50.860;4.698;2022-11-11T12:30:21;18.50;99.90
8850;DHT22;5638;50.860;4.698;2022-11-11T12:38:56;18.60;99.90
8850;DHT22;5638;50.860;4.698;2022-11-11T12:44:29;18.50;99.90
8850;DHT22;5638;50.860;4.698;2022-11-11T12:53:51;18.70;99.90
8850;DHT22;5638;50.860;4.698;2022-11-11T12:56:47;18.80;99.90
8850;DHT22;5638;50.860;4.698;2022-11-11T12:59:27;18.90;99.90
8850;DHT22;5638;50.860;4.698;2022-11-11T13:02:19;18.90;99.90
8850;DHT22;5638;50.860;4.698;2022-11-11T13:16:29;19.20;99.90
8850;DHT22;5638;50.860;4.698;2022-11-11T13:22:06;19.00;99.90
8850;DHT22;5638;50.860;4.698;2022-11-11T13:24:39;19.00;99.90
8850;DHT22;5638;50.860;4.698;2022-11-11T13:33:23;18.50;99.90
8850;DHT22;5638;50.860;4.698;2022-11-11T13:35:59;18.50;99.90
8850;DHT22;5638;50.860;4.698;2022-11-11T13:38:33;18.40;99.90
8850;DHT22;5638;50.860;4.698;2022-11-11T13:41:03;18.40;99.90
8850;DHT22;5638;50.860;4.698;2022-11-11T13:43:35;18.30;99.90
8850;DHT22;5638;50.860;4.698;2022-11-11T13:46:05;18.30;99.90
8850;DHT22;5638;50.860;4.698;2022-11-11T13:48:42;18.10;99.90
8850;DHT22;5638;50.860;4.698;2022-11-11T13:54:04;17.90;99.90
8850;DHT22;5638;50.860;4.698;2022-11-11T13:56:50;17.80;99.90
8850;DHT22;5638;50.860;4.698;2022-11-11T13:59:24;17.60;99.90
8850;DHT22;5638;50.860;4.698;2022-11-11T14:12:47;17.20;99.90
8850;DHT22;5638;50.860;4.698;2022-11-11T14:15:39;17.10;99.90
8850;DHT22;5638;50.860;4.698;2022-11-11T14:20:47;16.90;99.90
8850;DHT22;5638;50.860;4.698;2022-11-11T14:25:44;16.80;99.90
8850;DHT22;5638;50.860;4.698;2022-11-11T14:30:52;16.80;99.90
8850;DHT22;5638;50.860;4.698;2022-11-11T14:33:33;16.70;99.90
8850;DHT22;5638;50.860;4.698;2022-11-11T14:45:04;16.40;99.90
8850;DHT22;5638;50.860;4.698;2022-11-11T14:47:50;16.30;99.90
8850;DHT22;5638;50.860;4.698;2022-11-11T14:53:00;16.20;99.90
8850;DHT22;5638;50.860;4.698;2022-11-11T14:55:40;16.10;99.90
8850;DHT22;5638;50.860;4.698;2022-11-11T15:01:26;16.00;99.90
8850;DHT22;5638;50.860;4.698;2022-11-11T15:03:39;16.00;99.90
8850;DHT22;5638;50.860;4.698;2022-11-11T15:06:25;15.90;99.90
8850;DHT22;5638;50.860;4.698;2022-11-11T15:11:58;15.90;99.90
8850;DHT22;5638;50.860;4.698;2022-11-11T15:17:41;15.70;99.90
8850;DHT22;5638;50.860;4.698;2022-11-11T15:20:45;15.60;99.90
8850;DHT22;5638;50.860;4.698;2022-11-11T15:23:50;15.50;99.90
8850;DHT22;5638;50.860;4.698;2022-11-11T15:26:34;15.40;99.90
8850;DHT22;5638;50.860;4.698;2022-11-11T15:32:18;15.30;99.90
8850;DHT22;5638;50.860;4.698;2022-11-11T15:35:21;15.20;99.90
8850;DHT22;5638;50.860;4.698;2022-11-11T15:37:55;15.20;99.90
8850;DHT22;5638;50.860;4.698;2022-11-11T15:40:46;15.10;99.90
8850;DHT22;5638;50.860;4.698;2022-11-11T15:43:20;15.00;99.90
8850;DHT22;5638;50.860;4.698;2022-11-11T15:45:52;14.90;99.90
8850;DHT22;5638;50.860;4.698;2022-11-11T15:48:23;14.70;99.90
8850;DHT22;5638;50.860;4.698;2022-11-11T15:50:52;14.60;99.90
8850;DHT22;5638;50.860;4.698;2022-11-11T15:53:26;14.50;99.90
8850;DHT22;5638;50.860;4.698;2022-11-11T15:55:55;14.40;99.90
8850;DHT22;5638;50.860;4.698;2022-11-11T15:58:31;14.40;99.90
8850;DHT22;5638;50.860;4.698;2022-11-11T16:01:04;14.20;99.90
8850;DHT22;5638;50.860;4.698;2022-11-11T16:03:39;14.10;99.90
8850;DHT22;5638;50.860;4.698;2022-11-11T16:06:12;14.00;99.90
8850;DHT22;5638;50.860;4.698;2022-11-11T16:08:44;13.90;99.90
8850;DHT22;5638;50.860;4.698;2022-11-11T16:11:15;13.80;99.90
8850;DHT22;5638;50.860;4.698;2022-11-11T16:13:52;13.80;99.90
8850;DHT22;5638;50.860;4.698;2022-11-11T16:16:29;13.70;99.90
8850;DHT22;5638;50.860;4.698;2022-11-11T16:22:20;13.40;99.90
8850;DHT22;5638;50.860;4.698;2022-11-11T16:24:51;13.30;99.90
8850;DHT22;5638;50.860;4.698;2022-11-11T16:27:21;13.20;99.90
8850;DHT22;5638;50.860;4.698;2022-11-11T16:29:52;13.20;99.90
8850;DHT22;5638;50.860;4.698;2022-11-11T16:32:31;13.20;99.90
8850;DHT22;5638;50.860;4.698;2022-11-11T16:34:59;13.00;99.90
8850;DHT22;5638;50.860;4.698;2022-11-11T16:37:25;13.00;99.90
8850;DHT22;5638;50.860;4.698;2022-11-11T16:39:51;12.90;99.90
8850;DHT22;5638;50.860;4.698;2022-11-11T16:42:22;12.90;99.90
8850;DHT22;5638;50.860;4.698;2022-11-11T16:45:17;12.80;99.90
8850;DHT22;5638;50.860;4.698;2022-11-11T16:47:46;12.80;99.90
8850;DHT22;5638;50.860;4.698;2022-11-11T16:50:21;12.80;99.90
8850;DHT22;5638;50.860;4.698;2022-11-11T16:52:58;12.80;99.90
8850;DHT22;5638;50.860;4.698;2022-11-11T16:55:35;12.80;99.90
8850;DHT22;5638;50.860;4.698;2022-11-11T16:58:16;12.70;99.90
8850;DHT22;5638;50.860;4.698;2022-11-11T17:00:45;12.70;99.90
8850;DHT22;5638;50.860;4.698;2022-11-11T17:03:22;12.70;99.90
8850;DHT22;5638;50.860;4.698;2022-11-11T17:06:08;12.70;99.90
8850;DHT22;5638;50.860;4.698;2022-11-11T17:08:36;12.70;99.90
8850;DHT22;5638;50.860;4.698;2022-11-11T17:14:03;12.50;99.90
8850;DHT22;5638;50.860;4.698;2022-11-11T17:16:28;12.50;99.90
8850;DHT22;5638;50.860;4.698;2022-11-11T17:18:54;12.40;99.90
8850;DHT22;5638;50.860;4.698;2022-11-11T17:21:20;12.40;99.90
8850;DHT22;5638;50.860;4.698;2022-11-11T17:23:46;12.40;99.90
8850;DHT22;5638;50.860;4.698;2022-11-11T17:26:12;12.40;99.90
8850;DHT22;5638;50.860;4.698;2022-11-11T17:28:37;12.30;99.90
8850;DHT22;5638;50.860;4.698;2022-11-11T17:31:05;12.20;99.90
8850;DHT22;5638;50.860;4.698;2022-11-11T17:33:31;12.20;99.90
8850;DHT22;5638;50.860;4.698;2022-11-11T17:35:57;12.30;99.90
8850;DHT22;5638;50.860;4.698;2022-11-11T17:38:25;12.20;99.90
8850;DHT22;5638;50.860;4.698;2022-11-11T17:40:52;12.20;99.90
8850;DHT22;5638;50.860;4.698;2022-11-11T17:43:18;12.10;99.90
8850;DHT22;5638;50.860;4.698;2022-11-11T17:45:45;12.10;99.90
8850;DHT22;5638;50.860;4.698;2022-11-11T17:48:10;12.00;99.90
8850;DHT22;5638;50.860;4.698;2022-11-11T17:50:38;12.00;99.90
8850;DHT22;5638;50.860;4.698;2022-11-11T17:53:08;12.00;99.90
8850;DHT22;5638;50.860;4.698;2022-11-11T17:55:33;11.90;99.90
8850;DHT22;5638;50.860;4.698;2022-11-11T17:58:00;11.80;99.90
8850;DHT22;5638;50.860;4.698;2022-11-11T18:00:27;11.80;99.90
8850;DHT22;5638;50.860;4.698;2022-11-11T18:02:54;11.70;99.90
8850;DHT22;5638;50.860;4.698;2022-11-11T18:05:20;11.70;99.90
8850;DHT22;5638;50.860;4.698;2022-11-11T18:07:47;11.80;99.90
8850;DHT22;5638;50.860;4.698;2022-11-11T18:10:13;11.70;99.90
8850;DHT22;5638;50.860;4.698;2022-11-11T18:12:39;11.60;99.90
8850;DHT22;5638;50.860;4.698;2022-11-11T18:15:07;11.60;99.90
8850;DHT22;5638;50.860;4.698;2022-11-11T18:17:33;11.60;99.90
8850;DHT22;5638;50.860;4.698;2022-11-11T18:19:59;11.60;99.90
8850;DHT22;5638;50.860;4.698;2022-11-11T18:22:25;11.60;99.90
8850;DHT22;5638;50.860;4.698;2022-11-11T18:24:51;11.60;99.90
8850;DHT22;5638;50.860;4.698;2022-11-11T18:27:17;11.60;99.90
8850;DHT22;5638;50.860;4.698;2022-11-11T18:29:43;11.50;99.90
8850;DHT22;5638;50.860;4.698;2022-11-11T18:32:09;11.50;99.90
8850;DHT22;5638;50.860;4.698;2022-11-11T18:34:35;11.40;99.90
8850;DHT22;5638;50.860;4.698;2022-11-11T18:37:05;11.30;99.90
8850;DHT22;5638;50.860;4.698;2022-11-11T18:39:31;11.30;99.90
8850;DHT22;5638;50.860;4.698;2022-11-11T18:41:57;11.20;99.90
8850;DHT22;5638;50.860;4.698;2022-11-11T18:44:22;11.30;99.90
8850;DHT22;5638;50.860;4.698;2022-11-11T18:46:51;11.30;99.90
8850;DHT22;5638;50.860;4.698;2022-11-11T18:49:18;11.30;99.90
8850;DHT22;5638;50.860;4.698;2022-11-11T18:51:44;11.30;99.90
8850;DHT22;5638;50.860;4.698;2022-11-11T18:54:09;11.20;99.90